sensor_id;sensor_type;location;lat;lon;timestamp;temperature;humidity
15638;DHT22;26604;53.596;10.042;2024-01-30T00:02:16;4.30;99.90
15638;DHT22;26604;53.596;10.042;2024-01-30T00:04:43;4.30;99.90
15638;DHT22;26604;53.596;10.042;2024-01-30T00:07:10;4.20;99.90
15638;DHT22;26604;53.596;10.042;2024-01-30T00:09:38;4.20;99.90
15638;DHT22;26604;53.596;10.042;2024-01-30T00:12:06;4.20;99.90
15638;DHT22;26604;53.596;10.042;2024-01-30T00:14:33;4.10;99.90
15638;DHT22;26604;53.596;10.042;2024-01-30T00:17:00;4.10;99.90
15638;DHT22;26604;53.596;10.042;2024-01-30T00:19:26;4.10;99.90
15638;DHT22;26604;53.596;10.042;2024-01-30T00:21:53;4.10;99.90
15638;DHT22;26604;53.596;10.042;2024-01-30T00:24:20;4.10;99.90
15638;DHT22;26604;53.596;10.042;2024-01-30T00:26:48;4.10;99.90
15638;DHT22;26604;53.596;10.042;2024-01-30T00:29:15;4.10;99.90
15638;DHT22;26604;53.596;10.042;2024-01-30T00:31:44;4.20;99.90
15638;DHT22;26604;53.596;10.042;2024-01-30T00:34:11;4.20;99.90
15638;DHT22;26604;53.596;10.042;2024-01-30T00:36:38;4.20;99.90
15638;DHT22;26604;53.596;10.042;2024-01-30T00:39:05;4.20;99.90
15638;DHT22;26604;53.596;10.042;2024-01-30T00:41:34;4.20;99.90
15638;DHT22;26604;53.596;10.042;2024-01-30T00:44:02;4.20;99.90
15638;DHT22;26604;53.596;10.042;2024-01-30T00:46:29;4.10;99.90
15638;DHT22;26604;53.596;10.042;2024-01-30T00:48:56;4.10;99.90
15638;DHT22;26604;53.596;10.042;2024-01-30T00:51:23;4.10;99.90
15638;DHT22;26604;53.596;10.042;2024-01-30T00:53:50;4.10;99.90
15638;DHT22;26604;53.596;10.042;2024-01-30T00:56:17;4.10;99.90
15638;DHT22;26604;53.596;10.042;2024-01-30T00:58:44;4.00;99.90
15638;DHT22;26604;53.596;10.042;2024-01-30T01:01:12;4.00;99.90
15638;DHT22;26604;53.596;10.042;2024-01-30T01:03:40;4.00;99.90
15638;DHT22;26604;53.596;10.042;2024-01-30T01:06:09;4.00;99.90
15638;DHT22;26604;53.596;10.042;2024-01-30T01:08:36;4.00;99.90
15638;DHT22;26604;53.596;10.042;2024-01-30T01:11:03;4.00;99.90
15638;DHT22;26604;53.596;10.042;2024-01-30T01:13:29;4.00;99.90
15638;DHT22;26604;53.596;10.042;2024-01-30T01:15:56;4.00;99.90
15638;DHT22;26604;53.596;10.042;2024-01-30T01:18:25;4.00;99.90
15638;DHT22;26604;53.596;10.042;2024-01-30T01:20:52;4.10;99.90
15638;DHT22;26604;53.596;10.042;2024-01-30T01:23:19;4.10;99.90
15638;DHT22;26604;53.596;10.042;2024-01-30T01:25:46;4.10;99.90
15638;DHT22;26604;53.596;10.042;2024-01-30T01:28:13;4.10;99.90
15638;DHT22;26604;53.596;10.042;2024-01-30T01:30:39;4.10;99.90
15638;DHT22;26604;53.596;10.042;2024-01-30T01:33:07;4.20;99.90
15638;DHT22;26604;53.596;10.042;2024-01-30T01:35:36;4.20;99.90
15638;DHT22;26604;53.596;10.042;2024-01-30T01:38:03;4.20;99.90
15638;DHT22;26604;53.596;10.042;2024-01-30T01:40:30;4.10;99.90
15638;DHT22;26604;53.596;10.042;2024-01-30T01:42:57;4.10;99.90
15638;DHT22;26604;53.596;10.042;2024-01-30T01:45:23;4.20;99.90
15638;DHT22;26604;53.596;10.042;2024-01-30T01:47:51;4.20;99.90
15638;DHT22;26604;53.596;10.042;2024-01-30T01:50:27;4.20;99.90
15638;DHT22;26604;53.596;10.042;2024-01-30T01:52:56;4.20;99.90
15638;DHT22;26604;53.596;10.042;2024-01-30T01:55:23;4.20;99.90
15638;DHT22;26604;53.596;10.042;2024-01-30T01:57:53;4.20;99.90
15638;DHT22;26604;53.596;10.042;2024-01-30T02:00:20;4.20;99.90
15638;DHT22;26604;53.596;10.042;2024-01-30T02:02:47;4.20;99.90
15638;DHT22;26604;53.596;10.042;2024-01-30T02:05:14;4.20;99.90
15638;DHT22;26604;53.596;10.042;2024-01-30T02:07:42;4.30;99.90
15638;DHT22;26604;53.596;10.042;2024-01-30T02:10:10;4.30;99.90
15638;DHT22;26604;53.596;10.042;2024-01-30T02:12:37;4.30;99.90
15638;DHT22;26604;53.596;10.042;2024-01-30T02:15:05;4.30;99.90
15638;DHT22;26604;53.596;10.042;2024-01-30T02:17:33;4.30;99.90
15638;DHT22;26604;53.596;10.042;2024-01-30T02:20:00;4.40;99.90
15638;DHT22;26604;53.596;10.042;2024-01-30T02:22:28;4.40;99.90
15638;DHT22;26604;53.596;10.042;2024-01-30T02:24:56;4.40;99.90
15638;DHT22;26604;53.596;10.042;2024-01-30T02:27:22;4.40;99.90
15638;DHT22;26604;53.596;10.042;2024-01-30T02:29:49;4.40;99.90
15638;DHT22;26604;53.596;10.042;2024-01-30T02:32:16;4.40;99.90
15638;DHT22;26604;53.596;10.042;2024-01-30T02:34:43;4.40;99.90
15638;DHT22;26604;53.596;10.042;2024-01-30T02:37:10;4.40;99.90
15638;DHT22;26604;53.596;10.042;2024-01-30T02:39:38;4.40;99.90
15638;DHT22;26604;53.596;10.042;2024-01-30T02:42:05;4.40;99.90
15638;DHT22;26604;53.596;10.042;2024-01-30T02:44:32;4.40;99.90
15638;DHT22;26604;53.596;10.042;2024-01-30T02:46:59;4.40;99.90
15638;DHT22;26604;53.596;10.042;2024-01-30T02:49:26;4.40;99.90
15638;DHT22;26604;53.596;10.042;2024-01-30T02:51:53;4.40;99.90
15638;DHT22;26604;53.596;10.042;2024-01-30T02:54:20;4.30;99.90
15638;DHT22;26604;53.596;10.042;2024-01-30T02:56:48;4.30;99.90
15638;DHT22;26604;53.596;10.042;2024-01-30T02:59:15;4.30;99.90
15638;DHT22;26604;53.596;10.042;2024-01-30T03:01:43;4.30;99.90
15638;DHT22;26604;53.596;10.042;2024-01-30T03:04:10;4.20;99.90
15638;DHT22;26604;53.596;10.042;2024-01-30T03:06:37;4.20;99.90
15638;DHT22;26604;53.596;10.042;2024-01-30T03:09:04;4.20;99.90
15638;DHT22;26604;53.596;10.042;2024-01-30T03:11:31;4.10;99.90
15638;DHT22;26604;53.596;10.042;2024-01-30T03:13:59;4.10;99.90
15638;DHT22;26604;53.596;10.042;2024-01-30T03:16:26;4.00;99.90
15638;DHT22;26604;53.596;10.042;2024-01-30T03:18:53;4.00;99.90
15638;DHT22;26604;53.596;10.042;2024-01-30T03:21:20;4.00;99.90
15638;DHT22;26604;53.596;10.042;2024-01-30T03:23:47;4.00;99.90
15638;DHT22;26604;53.596;10.042;2024-01-30T03:26:14;4.00;99.90
15638;DHT22;26604;53.596;10.042;2024-01-30T03:28:41;4.00;99.90
15638;DHT22;26604;53.596;10.042;2024-01-30T03:31:09;3.80;99.90
15638;DHT22;26604;53.596;10.042;2024-01-30T03:33:36;3.80;99.90
15638;DHT22;26604;53.596;10.042;2024-01-30T03:36:05;3.90;99.90
15638;DHT22;26604;53.596;10.042;2024-01-30T03:38:32;3.90;99.90
15638;DHT22;26604;53.596;10.042;2024-01-30T03:40:59;3.90;99.90
15638;DHT22;26604;53.596;10.042;2024-01-30T03:43:26;3.90;99.90
15638;DHT22;26604;53.596;10.042;2024-01-30T03:45:53;3.80;99.90
15638;DHT22;26604;53.596;10.042;2024-01-30T03:48:21;3.80;99.90
15638;DHT22;26604;53.596;10.042;2024-01-30T03:50:48;3.80;99.90
15638;DHT22;26604;53.596;10.042;2024-01-30T03:53:15;3.70;99.90
15638;DHT22;26604;53.596;10.042;2024-01-30T03:55:42;3.70;99.90
15638;DHT22;26604;53.596;10.042;2024-01-30T03:58:09;3.70;99.90
15638;DHT22;26604;53.596;10.042;2024-01-30T04:00:36;3.70;99.90
15638;DHT22;26604;53.596;10.042;2024-01-30T04:03:03;3.70;99.90
15638;DHT22;26604;53.596;10.042;2024-01-30T04:05:31;3.70;99.90
15638;DHT22;26604;53.596;10.042;2024-01-30T04:07:58;3.70;99.90
15638;DHT22;26604;53.596;10.042;2024-01-30T04:10:25;3.70;99.90
15638;DHT22;26604;53.596;10.042;2024-01-30T04:12:52;3.70;99.90
15638;DHT22;26604;53.596;10.042;2024-01-30T04:15:19;3.70;99.90
15638;DHT22;26604;53.596;10.042;2024-01-30T04:17:46;3.70;99.90
15638;DHT22;26604;53.596;10.042;2024-01-30T04:20:14;3.60;99.90
15638;DHT22;26604;53.596;10.042;2024-01-30T04:22:43;3.60;99.90
15638;DHT22;26604;53.596;10.042;2024-01-30T04:25:10;3.60;99.90
15638;DHT22;26604;53.596;10.042;2024-01-30T04:27:37;3.50;99.90
15638;DHT22;26604;53.596;10.042;2024-01-30T04:30:05;3.50;99.90
15638;DHT22;26604;53.596;10.042;2024-01-30T04:32:32;3.50;99.90
15638;DHT22;26604;53.596;10.042;2024-01-30T04:34:59;3.50;99.90
15638;DHT22;26604;53.596;10.042;2024-01-30T04:37:26;3.40;99.90
15638;DHT22;26604;53.596;10.042;2024-01-30T04:39:54;3.40;99.90
15638;DHT22;26604;53.596;10.042;2024-01-30T04:42:21;3.40;99.90
15638;DHT22;26604;53.596;10.042;2024-01-30T04:44:48;3.40;99.90
15638;DHT22;26604;53.596;10.042;2024-01-30T04:47:15;3.30;99.90
15638;DHT22;26604;53.596;10.042;2024-01-30T04:49:42;3.30;99.90
15638;DHT22;26604;53.596;10.042;2024-01-30T04:52:09;3.30;99.90
15638;DHT22;26604;53.596;10.042;2024-01-30T04:54:36;3.40;99.90
15638;DHT22;26604;53.596;10.042;2024-01-30T04:57:05;3.30;99.90
15638;DHT22;26604;53.596;10.042;2024-01-30T04:59:35;3.30;99.90
15638;DHT22;26604;53.596;10.042;2024-01-30T05:02:02;3.30;99.90
15638;DHT22;26604;53.596;10.042;2024-01-30T05:04:29;3.30;99.90
15638;DHT22;26604;53.596;10.042;2024-01-30T05:06:55;3.30;99.90
15638;DHT22;26604;53.596;10.042;2024-01-30T05:09:22;3.40;99.90
15638;DHT22;26604;53.596;10.042;2024-01-30T05:11:49;3.30;99.90
15638;DHT22;26604;53.596;10.042;2024-01-30T05:14:17;3.40;99.90
15638;DHT22;26604;53.596;10.042;2024-01-30T05:16:44;3.30;99.90
15638;DHT22;26604;53.596;10.042;2024-01-30T05:19:12;3.40;99.90
15638;DHT22;26604;53.596;10.042;2024-01-30T05:21:39;3.40;99.90
15638;DHT22;26604;53.596;10.042;2024-01-30T05:24:06;3.50;99.90
15638;DHT22;26604;53.596;10.042;2024-01-30T05:26:35;3.50;99.90
15638;DHT22;26604;53.596;10.042;2024-01-30T05:29:02;3.60;99.90
15638;DHT22;26604;53.596;10.042;2024-01-30T05:31:30;3.70;99.90
15638;DHT22;26604;53.596;10.042;2024-01-30T05:33:57;3.70;99.90
15638;DHT22;26604;53.596;10.042;2024-01-30T05:36:24;3.70;99.90
15638;DHT22;26604;53.596;10.042;2024-01-30T05:38:51;3.80;99.90
15638;DHT22;26604;53.596;10.042;2024-01-30T05:41:18;3.80;99.90
15638;DHT22;26604;53.596;10.042;2024-01-30T05:43:44;3.90;99.90
15638;DHT22;26604;53.596;10.042;2024-01-30T05:46:11;4.00;99.90
15638;DHT22;26604;53.596;10.042;2024-01-30T05:48:40;4.00;99.90
15638;DHT22;26604;53.596;10.042;2024-01-30T05:51:07;4.10;99.90
15638;DHT22;26604;53.596;10.042;2024-01-30T05:53:34;4.10;99.90
15638;DHT22;26604;53.596;10.042;2024-01-30T05:56:02;4.00;99.90
15638;DHT22;26604;53.596;10.042;2024-01-30T05:58:29;4.00;99.90
15638;DHT22;26604;53.596;10.042;2024-01-30T06:00:56;4.00;99.90
15638;DHT22;26604;53.596;10.042;2024-01-30T06:03:23;4.00;99.90
15638;DHT22;26604;53.596;10.042;2024-01-30T06:05:52;4.00;99.90
15638;DHT22;26604;53.596;10.042;2024-01-30T06:08:19;3.90;99.90
15638;DHT22;26604;53.596;10.042;2024-01-30T06:10:46;3.90;99.90
15638;DHT22;26604;53.596;10.042;2024-01-30T06:13:13;3.90;99.90
15638;DHT22;26604;53.596;10.042;2024-01-30T06:15:40;3.90;99.90
15638;DHT22;26604;53.596;10.042;2024-01-30T06:18:07;3.90;99.90
15638;DHT22;26604;53.596;10.042;2024-01-30T06:20:34;3.90;99.90
15638;DHT22;26604;53.596;10.042;2024-01-30T06:23:02;3.80;99.90
15638;DHT22;26604;53.596;10.042;2024-01-30T06:25:29;3.90;99.90
15638;DHT22;26604;53.596;10.042;2024-01-30T06:27:56;4.00;99.90
15638;DHT22;26604;53.596;10.042;2024-01-30T06:30:23;4.10;99.90
15638;DHT22;26604;53.596;10.042;2024-01-30T06:32:50;4.10;99.90
15638;DHT22;26604;53.596;10.042;2024-01-30T06:35:17;4.20;99.90
15638;DHT22;26604;53.596;10.042;2024-01-30T06:37:44;4.30;99.90
15638;DHT22;26604;53.596;10.042;2024-01-30T06:40:12;4.30;99.90
15638;DHT22;26604;53.596;10.042;2024-01-30T06:42:39;4.30;99.90
15638;DHT22;26604;53.596;10.042;2024-01-30T06:45:07;4.40;99.90
15638;DHT22;26604;53.596;10.042;2024-01-30T06:47:34;4.40;99.90
15638;DHT22;26604;53.596;10.042;2024-01-30T06:50:01;4.50;99.90
15638;DHT22;26604;53.596;10.042;2024-01-30T06:52:29;4.50;99.90
15638;DHT22;26604;53.596;10.042;2024-01-30T06:54:55;4.60;99.90
15638;DHT22;26604;53.596;10.042;2024-01-30T06:57:24;4.60;99.90
15638;DHT22;26604;53.596;10.042;2024-01-30T06:59:55;4.70;99.90
15638;DHT22;26604;53.596;10.042;2024-01-30T07:02:22;4.70;99.90
15638;DHT22;26604;53.596;10.042;2024-01-30T07:04:50;4.70;99.90
15638;DHT22;26604;53.596;10.042;2024-01-30T07:07:17;6.40;99.90
15638;DHT22;26604;53.596;10.042;2024-01-30T07:09:43;4.70;99.90
15638;DHT22;26604;53.596;10.042;2024-01-30T07:12:11;4.70;99.90
15638;DHT22;26604;53.596;10.042;2024-01-30T07:14:40;4.70;99.90
15638;DHT22;26604;53.596;10.042;2024-01-30T07:17:06;4.70;99.90
15638;DHT22;26604;53.596;10.042;2024-01-30T07:19:33;4.60;99.90
15638;DHT22;26604;53.596;10.042;2024-01-30T07:22:00;4.60;99.90
15638;DHT22;26604;53.596;10.042;2024-01-30T07:24:27;4.50;99.90
15638;DHT22;26604;53.596;10.042;2024-01-30T07:26:54;4.50;99.90
15638;DHT22;26604;53.596;10.042;2024-01-30T07:29:21;4.50;99.90
15638;DHT22;26604;53.596;10.042;2024-01-30T07:31:49;4.40;99.90
15638;DHT22;26604;53.596;10.042;2024-01-30T07:34:16;4.40;99.90
15638;DHT22;26604;53.596;10.042;2024-01-30T07:36:43;4.50;99.90
15638;DHT22;26604;53.596;10.042;2024-01-30T07:39:11;4.50;99.90
15638;DHT22;26604;53.596;10.042;2024-01-30T07:41:38;4.50;99.90
15638;DHT22;26604;53.596;10.042;2024-01-30T07:44:05;4.60;99.90
15638;DHT22;26604;53.596;10.042;2024-01-30T07:46:32;4.80;99.90
15638;DHT22;26604;53.596;10.042;2024-01-30T07:49:00;4.70;99.90
15638;DHT22;26604;53.596;10.042;2024-01-30T07:51:27;4.80;99.90
15638;DHT22;26604;53.596;10.042;2024-01-30T07:53:57;4.80;99.90
15638;DHT22;26604;53.596;10.042;2024-01-30T07:56:24;4.90;99.90
15638;DHT22;26604;53.596;10.042;2024-01-30T07:58:51;5.00;99.90
15638;DHT22;26604;53.596;10.042;2024-01-30T08:01:18;5.10;99.90
15638;DHT22;26604;53.596;10.042;2024-01-30T08:03:45;5.20;99.90
15638;DHT22;26604;53.596;10.042;2024-01-30T08:06:13;5.30;99.90
15638;DHT22;26604;53.596;10.042;2024-01-30T08:08:40;5.40;99.90
15638;DHT22;26604;53.596;10.042;2024-01-30T08:11:07;5.40;99.90
15638;DHT22;26604;53.596;10.042;2024-01-30T08:13:34;5.50;99.90
15638;DHT22;26604;53.596;10.042;2024-01-30T08:16:01;5.60;99.90
15638;DHT22;26604;53.596;10.042;2024-01-30T08:18:28;5.60;99.90
15638;DHT22;26604;53.596;10.042;2024-01-30T08:20:54;5.70;99.90
15638;DHT22;26604;53.596;10.042;2024-01-30T08:23:23;5.70;99.90
15638;DHT22;26604;53.596;10.042;2024-01-30T08:25:49;5.70;99.90
15638;DHT22;26604;53.596;10.042;2024-01-30T08:28:16;5.80;99.90
15638;DHT22;26604;53.596;10.042;2024-01-30T08:30:43;6.10;99.90
15638;DHT22;26604;53.596;10.042;2024-01-30T08:33:10;5.90;99.90
15638;DHT22;26604;53.596;10.042;2024-01-30T08:35:37;6.00;99.90
15638;DHT22;26604;53.596;10.042;2024-01-30T08:38:04;6.10;99.90
15638;DHT22;26604;53.596;10.042;2024-01-30T08:40:32;6.10;99.90
15638;DHT22;26604;53.596;10.042;2024-01-30T08:42:59;6.20;99.90
15638;DHT22;26604;53.596;10.042;2024-01-30T08:45:26;6.30;99.90
15638;DHT22;26604;53.596;10.042;2024-01-30T08:47:53;6.40;99.90
15638;DHT22;26604;53.596;10.042;2024-01-30T08:50:19;6.40;99.90
15638;DHT22;26604;53.596;10.042;2024-01-30T08:52:46;6.40;99.90
15638;DHT22;26604;53.596;10.042;2024-01-30T08:55:13;6.50;99.90
15638;DHT22;26604;53.596;10.042;2024-01-30T08:57:42;6.50;99.90
15638;DHT22;26604;53.596;10.042;2024-01-30T09:00:09;6.60;99.90
15638;DHT22;26604;53.596;10.042;2024-01-30T09:02:36;6.60;99.90
15638;DHT22;26604;53.596;10.042;2024-01-30T09:05:04;6.60;99.90
15638;DHT22;26604;53.596;10.042;2024-01-30T09:07:30;6.70;99.90
15638;DHT22;26604;53.596;10.042;2024-01-30T09:09:57;6.80;99.90
15638;DHT22;26604;53.596;10.042;2024-01-30T09:12:24;6.80;99.90
15638;DHT22;26604;53.596;10.042;2024-01-30T09:14:52;6.90;99.90
15638;DHT22;26604;53.596;10.042;2024-01-30T09:17:22;6.90;99.90
15638;DHT22;26604;53.596;10.042;2024-01-30T09:19:49;7.00;99.90
15638;DHT22;26604;53.596;10.042;2024-01-30T09:22:16;7.10;99.90
15638;DHT22;26604;53.596;10.042;2024-01-30T09:24:43;7.10;99.90
15638;DHT22;26604;53.596;10.042;2024-01-30T09:27:10;7.20;99.90
15638;DHT22;26604;53.596;10.042;2024-01-30T09:29:36;7.30;99.90
15638;DHT22;26604;53.596;10.042;2024-01-30T09:32:05;7.40;99.90
15638;DHT22;26604;53.596;10.042;2024-01-30T09:34:32;7.40;99.90
15638;DHT22;26604;53.596;10.042;2024-01-30T09:36:59;7.50;99.90
15638;DHT22;26604;53.596;10.042;2024-01-30T09:39:26;7.60;99.90
15638;DHT22;26604;53.596;10.042;2024-01-30T09:42:02;7.70;99.90
15638;DHT22;26604;53.596;10.042;2024-01-30T09:44:29;7.60;99.90
15638;DHT22;26604;53.596;10.042;2024-01-30T09:46:57;7.70;99.90
15638;DHT22;26604;53.596;10.042;2024-01-30T09:49:32;7.70;99.90
15638;DHT22;26604;53.596;10.042;2024-01-30T09:52:00;7.80;99.90
15638;DHT22;26604;53.596;10.042;2024-01-30T09:54:29;7.80;99.90
15638;DHT22;26604;53.596;10.042;2024-01-30T09:56:56;8.10;99.90
15638;DHT22;26604;53.596;10.042;2024-01-30T09:59:23;8.80;99.90
15638;DHT22;26604;53.596;10.042;2024-01-30T10:01:50;8.10;99.90
15638;DHT22;26604;53.596;10.042;2024-01-30T10:04:17;8.00;99.90
15638;DHT22;26604;53.596;10.042;2024-01-30T10:06:46;8.10;99.90
15638;DHT22;26604;53.596;10.042;2024-01-30T10:09:14;8.20;99.90
15638;DHT22;26604;53.596;10.042;2024-01-30T10:11:40;8.20;99.90
15638;DHT22;26604;53.596;10.042;2024-01-30T10:14:07;8.20;99.90
15638;DHT22;26604;53.596;10.042;2024-01-30T10:16:34;8.20;99.90
15638;DHT22;26604;53.596;10.042;2024-01-30T10:19:01;8.30;99.90
15638;DHT22;26604;53.596;10.042;2024-01-30T10:21:29;8.40;99.90
15638;DHT22;26604;53.596;10.042;2024-01-30T10:23:58;8.50;99.90
15638;DHT22;26604;53.596;10.042;2024-01-30T10:26:25;8.60;99.90
15638;DHT22;26604;53.596;10.042;2024-01-30T10:28:54;8.70;99.90
15638;DHT22;26604;53.596;10.042;2024-01-30T10:31:21;8.70;99.90
15638;DHT22;26604;53.596;10.042;2024-01-30T10:33:49;8.90;99.90
15638;DHT22;26604;53.596;10.042;2024-01-30T10:36:17;9.30;99.90
15638;DHT22;26604;53.596;10.042;2024-01-30T10:38:45;9.00;99.90
15638;DHT22;26604;53.596;10.042;2024-01-30T10:41:18;9.10;99.90
15638;DHT22;26604;53.596;10.042;2024-01-30T10:43:53;9.10;99.90
15638;DHT22;26604;53.596;10.042;2024-01-30T10:46:25;9.20;99.90
15638;DHT22;26604;53.596;10.042;2024-01-30T10:48:58;9.20;99.90
15638;DHT22;26604;53.596;10.042;2024-01-30T10:51:26;9.30;99.90
15638;DHT22;26604;53.596;10.042;2024-01-30T10:53:53;9.40;99.90
15638;DHT22;26604;53.596;10.042;2024-01-30T10:56:22;9.50;99.90
15638;DHT22;26604;53.596;10.042;2024-01-30T10:58:50;9.60;99.90
15638;DHT22;26604;53.596;10.042;2024-01-30T11:01:18;9.70;99.90
15638;DHT22;26604;53.596;10.042;2024-01-30T11:03:46;9.80;99.90
15638;DHT22;26604;53.596;10.042;2024-01-30T11:06:14;9.80;99.90
15638;DHT22;26604;53.596;10.042;2024-01-30T11:08:44;9.80;99.90
15638;DHT22;26604;53.596;10.042;2024-01-30T11:11:11;9.90;99.90
15638;DHT22;26604;53.596;10.042;2024-01-30T11:13:40;9.90;99.90
15638;DHT22;26604;53.596;10.042;2024-01-30T11:16:11;10.00;99.90
15638;DHT22;26604;53.596;10.042;2024-01-30T11:18:38;10.00;99.90
15638;DHT22;26604;53.596;10.042;2024-01-30T11:21:05;10.10;99.90
15638;DHT22;26604;53.596;10.042;2024-01-30T11:23:34;10.20;99.90
15638;DHT22;26604;53.596;10.042;2024-01-30T11:26:01;10.20;99.90
15638;DHT22;26604;53.596;10.042;2024-01-30T11:28:33;10.20;99.90
15638;DHT22;26604;53.596;10.042;2024-01-30T11:31:05;10.30;99.90
15638;DHT22;26604;53.596;10.042;2024-01-30T11:33:33;10.40;99.90
15638;DHT22;26604;53.596;10.042;2024-01-30T11:36:01;10.40;99.90
15638;DHT22;26604;53.596;10.042;2024-01-30T11:38:28;10.40;99.90
15638;DHT22;26604;53.596;10.042;2024-01-30T11:40:56;10.40;99.90
15638;DHT22;26604;53.596;10.042;2024-01-30T11:43:23;10.40;99.90
15638;DHT22;26604;53.596;10.042;2024-01-30T11:45:50;10.40;99.90
15638;DHT22;26604;53.596;10.042;2024-01-30T11:48:18;10.50;99.90
15638;DHT22;26604;53.596;10.042;2024-01-30T11:50:45;10.40;99.90
15638;DHT22;26604;53.596;10.042;2024-01-30T11:53:13;10.40;99.90
15638;DHT22;26604;53.596;10.042;2024-01-30T11:55:39;10.50;99.90
15638;DHT22;26604;53.596;10.042;2024-01-30T11:58:06;10.40;99.90
15638;DHT22;26604;53.596;10.042;2024-01-30T12:00:33;10.40;99.90
15638;DHT22;26604;53.596;10.042;2024-01-30T12:03:01;10.40;99.90
15638;DHT22;26604;53.596;10.042;2024-01-30T12:05:30;10.40;99.90
15638;DHT22;26604;53.596;10.042;2024-01-30T12:07:56;10.40;99.90
15638;DHT22;26604;53.596;10.042;2024-01-30T12:10:24;10.50;99.90
15638;DHT22;26604;53.596;10.042;2024-01-30T12:12:52;10.50;99.90
15638;DHT22;26604;53.596;10.042;2024-01-30T12:15:22;10.50;99.90
15638;DHT22;26604;53.596;10.042;2024-01-30T12:17:49;10.50;99.90
15638;DHT22;26604;53.596;10.042;2024-01-30T12:20:18;10.50;99.90
15638;DHT22;26604;53.596;10.042;2024-01-30T12:22:49;10.40;99.90
15638;DHT22;26604;53.596;10.042;2024-01-30T12:25:17;10.50;99.90
15638;DHT22;26604;53.596;10.042;2024-01-30T12:27:46;10.50;99.90
15638;DHT22;26604;53.596;10.042;2024-01-30T12:30:15;10.50;99.90
15638;DHT22;26604;53.596;10.042;2024-01-30T12:32:44;10.50;99.90
15638;DHT22;26604;53.596;10.042;2024-01-30T12:35:11;10.50;99.90
15638;DHT22;26604;53.596;10.042;2024-01-30T12:37:39;10.40;99.90
15638;DHT22;26604;53.596;10.042;2024-01-30T12:40:08;10.50;99.90
15638;DHT22;26604;53.596;10.042;2024-01-30T12:42:35;10.50;99.90
15638;DHT22;26604;53.596;10.042;2024-01-30T12:45:03;10.50;99.90
15638;DHT22;26604;53.596;10.042;2024-01-30T12:47:30;10.50;99.90
15638;DHT22;26604;53.596;10.042;2024-01-30T12:49:57;10.60;99.90
15638;DHT22;26604;53.596;10.042;2024-01-30T12:52:24;10.60;99.90
15638;DHT22;26604;53.596;10.042;2024-01-30T12:54:52;10.70;99.90
15638;DHT22;26604;53.596;10.042;2024-01-30T12:57:20;10.70;99.90
15638;DHT22;26604;53.596;10.042;2024-01-30T12:59:47;10.70;99.90
15638;DHT22;26604;53.596;10.042;2024-01-30T13:02:15;10.70;99.90
15638;DHT22;26604;53.596;10.042;2024-01-30T13:04:42;10.70;99.90
15638;DHT22;26604;53.596;10.042;2024-01-30T13:07:10;10.70;99.90
15638;DHT22;26604;53.596;10.042;2024-01-30T13:09:36;10.80;99.90
15638;DHT22;26604;53.596;10.042;2024-01-30T13:12:04;10.70;99.90
15638;DHT22;26604;53.596;10.042;2024-01-30T13:14:32;10.70;99.90
15638;DHT22;26604;53.596;10.042;2024-01-30T13:16:59;10.70;99.90
15638;DHT22;26604;53.596;10.042;2024-01-30T13:19:26;10.50;99.90
15638;DHT22;26604;53.596;10.042;2024-01-30T13:21:53;10.60;99.90
15638;DHT22;26604;53.596;10.042;2024-01-30T13:24:20;10.70;99.90
15638;DHT22;26604;53.596;10.042;2024-01-30T13:26:47;10.70;99.90
15638;DHT22;26604;53.596;10.042;2024-01-30T13:29:15;10.70;99.90
15638;DHT22;26604;53.596;10.042;2024-01-30T13:31:43;10.70;99.90
15638;DHT22;26604;53.596;10.042;2024-01-30T13:34:11;10.70;99.90
15638;DHT22;26604;53.596;10.042;2024-01-30T13:36:39;10.70;99.90
15638;DHT22;26604;53.596;10.042;2024-01-30T13:39:06;10.60;99.90
15638;DHT22;26604;53.596;10.042;2024-01-30T13:41:36;10.60;99.90
15638;DHT22;26604;53.596;10.042;2024-01-30T13:44:03;10.60;99.90
15638;DHT22;26604;53.596;10.042;2024-01-30T13:46:30;10.60;99.90
15638;DHT22;26604;53.596;10.042;2024-01-30T13:49:04;10.60;99.90
15638;DHT22;26604;53.596;10.042;2024-01-30T13:51:30;10.90;99.90
15638;DHT22;26604;53.596;10.042;2024-01-30T13:53:57;10.60;99.90
15638;DHT22;26604;53.596;10.042;2024-01-30T13:56:24;10.60;99.90
15638;DHT22;26604;53.596;10.042;2024-01-30T13:58:52;10.60;99.90
15638;DHT22;26604;53.596;10.042;2024-01-30T14:01:21;10.70;99.90
15638;DHT22;26604;53.596;10.042;2024-01-30T14:03:48;10.80;99.90
15638;DHT22;26604;53.596;10.042;2024-01-30T14:06:16;10.70;99.90
15638;DHT22;26604;53.596;10.042;2024-01-30T14:08:43;10.70;99.90
15638;DHT22;26604;53.596;10.042;2024-01-30T14:11:10;10.80;99.90
15638;DHT22;26604;53.596;10.042;2024-01-30T14:13:36;10.80;99.90
15638;DHT22;26604;53.596;10.042;2024-01-30T14:16:04;10.80;99.90
15638;DHT22;26604;53.596;10.042;2024-01-30T14:18:31;10.80;99.90
15638;DHT22;26604;53.596;10.042;2024-01-30T14:20:58;10.80;99.90
15638;DHT22;26604;53.596;10.042;2024-01-30T14:23:26;10.80;99.90
15638;DHT22;26604;53.596;10.042;2024-01-30T14:25:53;10.80;99.90
15638;DHT22;26604;53.596;10.042;2024-01-30T14:28:20;10.80;99.90
15638;DHT22;26604;53.596;10.042;2024-01-30T14:30:47;10.90;99.90
15638;DHT22;26604;53.596;10.042;2024-01-30T14:33:14;10.90;99.90
15638;DHT22;26604;53.596;10.042;2024-01-30T14:35:41;10.90;99.90
15638;DHT22;26604;53.596;10.042;2024-01-30T14:38:08;10.90;99.90
15638;DHT22;26604;53.596;10.042;2024-01-30T14:40:38;10.90;99.90
15638;DHT22;26604;53.596;10.042;2024-01-30T14:43:05;10.90;99.90
15638;DHT22;26604;53.596;10.042;2024-01-30T14:45:31;10.80;99.90
15638;DHT22;26604;53.596;10.042;2024-01-30T14:47:59;10.80;99.90
15638;DHT22;26604;53.596;10.042;2024-01-30T14:50:26;10.80;99.90
15638;DHT22;26604;53.596;10.042;2024-01-30T14:52:53;10.80;99.90
15638;DHT22;26604;53.596;10.042;2024-01-30T14:55:20;10.80;99.90
15638;DHT22;26604;53.596;10.042;2024-01-30T14:57:49;10.80;99.90
15638;DHT22;26604;53.596;10.042;2024-01-30T15:00:16;10.80;99.90
15638;DHT22;26604;53.596;10.042;2024-01-30T15:02:44;10.80;99.90
15638;DHT22;26604;53.596;10.042;2024-01-30T15:05:12;10.80;99.90
15638;DHT22;26604;53.596;10.042;2024-01-30T15:07:39;10.80;99.90
15638;DHT22;26604;53.596;10.042;2024-01-30T15:10:07;10.80;99.90
15638;DHT22;26604;53.596;10.042;2024-01-30T15:15:55;10.80;99.90
15638;DHT22;26604;53.596;10.042;2024-01-30T15:18:22;10.70;99.90
15638;DHT22;26604;53.596;10.042;2024-01-30T15:20:49;10.70;99.90
15638;DHT22;26604;53.596;10.042;2024-01-30T15:23:16;10.70;99.90
15638;DHT22;26604;53.596;10.042;2024-01-30T15:25:43;10.70;99.90
15638;DHT22;26604;53.596;10.042;2024-01-30T15:28:10;10.70;99.90
15638;DHT22;26604;53.596;10.042;2024-01-30T15:30:37;10.70;99.90
15638;DHT22;26604;53.596;10.042;2024-01-30T15:33:05;10.70;99.90